Time;durP1;ratioP1;P1;durP2;ratioP2;P2;SDS_P1;SDS_P2;PMS_P1;PMS_P2;Temp;Humidity;BMP_temperature;BMP_pressure;BME280_temperature;BME280_humidity;BME280_pressure;Samples;Min_cycle;Max_cycle;Signal;HPM_P1;HPM_P2
2021/08/10 00:02:04;;;;;;;15.55;13.60;;;;;;;23.80;62.27;99859.31;5031826;28;20458;-62
2021/08/10 00:04:30;;;;;;;17.73;13.98;;;;;;;23.83;62.59;99867.09;5031832;28;20026;-62
2021/08/10 00:06:55;;;;;;;18.98;13.65;;;;;;;23.79;62.64;99863.09;5031163;28;20026;-65
2021/08/10 00:09:21;;;;;;;17.23;15.15;;;;;;;23.81;62.56;99863.72;5031541;28;20033;-62
2021/08/10 00:11:46;;;;;;;20.70;14.10;;;;;;;23.74;62.92;99858.25;5032253;28;20042;-63
2021/08/10 00:14:11;;;;;;;18.90;14.70;;;;;;;23.72;63.09;99851.34;5031956;28;20052;-63
2021/08/10 00:16:38;;;;;;;18.27;14.63;;;;;;;23.73;62.98;99847.53;5031116;28;20204;-63
2021/08/10 00:19:04;;;;;;;16.75;14.70;;;;;;;23.70;63.04;99848.78;5031736;28;20051;-61
2021/08/10 00:21:29;;;;;;;19.38;15.40;;;;;;;23.68;63.09;99855.53;5032032;28;20051;-62
2021/08/10 00:23:55;;;;;;;16.80;14.15;;;;;;;23.52;63.90;99846.69;5031428;28;20117;-63
2021/08/10 00:26:20;;;;;;;16.58;14.75;;;;;;;23.45;64.41;99859.50;5031476;28;20032;-64
2021/08/10 00:28:49;;;;;;;17.35;15.48;;;;;;;23.33;64.35;99856.56;5032150;28;20057;-64
2021/08/10 00:31:14;;;;;;;18.02;15.05;;;;;;;23.33;64.75;99856.56;5032513;28;20044;-62
2021/08/10 00:33:40;;;;;;;18.08;14.80;;;;;;;23.27;64.21;99858.22;5030088;28;20049;-64
2021/08/10 00:36:05;;;;;;;19.20;15.02;;;;;;;23.22;65.02;99847.03;5031386;28;20040;-62
2021/08/10 00:38:31;;;;;;;18.85;14.98;;;;;;;23.21;65.12;99843.44;5031053;28;20037;-63
2021/08/10 00:40:57;;;;;;;17.73;15.50;;;;;;;23.27;64.89;99844.56;5035551;28;20036;-63
2021/08/10 00:43:27;;;;;;;18.98;14.90;;;;;;;23.28;64.83;99848.97;5051225;28;20115;-63
2021/08/10 00:45:52;;;;;;;17.98;14.80;;;;;;;23.26;65.16;99842.88;5049728;28;20110;-63
2021/08/10 00:48:19;;;;;;;17.98;14.77;;;;;;;23.15;65.22;99832.50;5050437;28;20104;-62
2021/08/10 00:50:45;;;;;;;18.30;14.15;;;;;;;23.17;65.95;99849.56;5051567;28;20120;-61
2021/08/10 00:53:11;;;;;;;19.98;15.40;;;;;;;23.12;65.66;99852.03;5050786;28;20579;-62
2021/08/10 00:55:36;;;;;;;17.65;15.02;;;;;;;23.08;65.81;99855.19;5051108;28;20107;-64
2021/08/10 00:58:02;;;;;;;20.70;16.35;;;;;;;23.04;66.16;99851.19;5051668;28;20028;-64
2021/08/10 01:00:28;;;;;;;20.80;15.80;;;;;;;23.03;66.17;99852.25;5050979;28;20028;-62
2021/08/10 01:02:53;;;;;;;24.92;15.82;;;;;;;23.06;66.06;99849.09;5051017;28;20037;-62
2021/08/10 01:05:19;;;;;;;18.20;15.38;;;;;;;23.08;66.00;99855.19;5050797;28;20034;-64
2021/08/10 01:07:55;;;;;;;18.70;14.43;;;;;;;23.00;65.67;99825.34;5044138;28;20048;-63
2021/08/10 01:10:25;;;;;;;16.48;14.32;;;;;;;23.15;65.51;99838.81;5030694;28;20470;-62
2021/08/10 01:13:27;;;;;;;18.77;14.60;;;;;;;23.23;64.97;99848.72;5031112;28;20025;-63
2021/08/10 01:16:00;;;;;;;19.13;14.63;;;;;;;23.23;65.17;99846.00;5030951;28;20033;-63
2021/08/10 01:18:31;;;;;;;18.98;14.15;;;;;;;23.20;65.51;99846.41;5031444;28;20048;-64
2021/08/10 01:21:21;;;;;;;19.55;14.63;;;;;;;23.28;64.80;99848.16;5031781;28;20034;-62
2021/08/10 01:23:56;;;;;;;21.52;15.00;;;;;;;23.16;65.29;99839.69;5030872;28;20025;-61
2021/08/10 01:27:09;;;;;;;20.38;15.38;;;;;;;23.31;64.70;99842.25;5030625;28;20030;-62
2021/08/10 01:30:12;;;;;;;16.25;14.25;;;;;;;23.28;64.52;99832.59;5029854;28;20064;-62
2021/08/10 01:32:40;;;;;;;17.38;14.40;;;;;;;23.11;65.55;99836.72;5030054;28;20046;-62
2021/08/10 01:35:07;;;;;;;19.15;15.38;;;;;;;23.08;65.90;99843.44;5030403;28;20466;-62
2021/08/10 01:37:35;;;;;;;17.13;15.38;;;;;;;23.06;66.20;99838.16;5030218;28;20028;-62
2021/08/10 01:40:12;;;;;;;17.73;15.82;;;;;;;23.08;65.89;99833.34;5029473;28;20035;-64
2021/08/10 01:42:39;;;;;;;19.42;15.43;;;;;;;23.03;66.32;99833.13;5030341;28;20112;-61
2021/08/10 01:45:07;;;;;;;18.63;15.10;;;;;;;23.04;66.16;99825.78;5030742;28;20044;-63
2021/08/10 01:47:34;;;;;;;24.10;16.38;;;;;;;23.00;66.46;99817.16;5030530;28;20025;-62
2021/08/10 01:50:02;;;;;;;19.38;16.00;;;;;;;23.05;66.24;99832.94;5030152;28;20484;-64
2021/08/10 01:52:28;;;;;;;21.23;15.65;;;;;;;22.99;66.58;99831.84;5034305;28;20029;-62
2021/08/10 01:54:55;;;;;;;17.85;15.73;;;;;;;22.98;66.49;99830.19;5034420;28;20450;-64
2021/08/10 01:57:22;;;;;;;19.10;15.07;;;;;;;22.93;66.67;99836.25;5034422;28;20034;-64
2021/08/10 01:59:54;;;;;;;21.73;15.98;;;;;;;23.00;66.50;99836.28;5034587;28;20396;-65
2021/08/10 02:02:21;;;;;;;21.70;15.25;;;;;;;22.91;66.79;99826.59;5033836;28;20075;-63
2021/08/10 02:04:48;;;;;;;20.15;15.75;;;;;;;22.94;66.39;99827.00;5034471;28;20033;-62
2021/08/10 02:07:14;;;;;;;19.95;16.77;;;;;;;22.75;66.81;99798.59;5031178;28;20029;-61
2021/08/10 02:09:40;;;;;;;18.33;16.42;;;;;;;22.87;66.98;99826.16;5014322;28;20060;-61
2021/08/10 02:12:08;;;;;;;21.92;15.25;;;;;;;22.91;66.82;99838.34;5014178;28;20480;-62
2021/08/10 02:14:34;;;;;;;19.23;15.32;;;;;;;22.88;66.73;99837.91;5014443;28;20040;-61
2021/08/10 02:17:02;;;;;;;20.27;16.30;;;;;;;22.97;66.84;99842.16;5014796;28;20133;-62
2021/08/10 02:19:29;;;;;;;18.70;15.75;;;;;;;22.92;66.63;99833.75;5013683;28;20432;-61
2021/08/10 02:22:07;;;;;;;18.02;16.23;;;;;;;23.09;66.37;99837.75;5014227;28;20029;-60
2021/08/10 02:24:49;;;;;;;19.35;15.63;;;;;;;22.91;66.38;99804.75;5014319;28;20030;-62
2021/08/10 02:27:30;;;;;;;18.02;16.02;;;;;;;23.10;65.82;99824.97;5014853;28;20053;-62
2021/08/10 02:29:58;;;;;;;19.60;15.45;;;;;;;23.08;66.54;99841.53;5013590;28;20054;-61
2021/08/10 02:32:26;;;;;;;19.75;16.30;;;;;;;23.08;66.20;99832.50;5013654;28;20044;-62
2021/08/10 02:34:53;;;;;;;20.25;16.00;;;;;;;23.08;66.31;99833.34;5014184;28;20026;-61
2021/08/10 02:37:20;;;;;;;17.67;15.55;;;;;;;23.11;66.19;99833.97;5012569;28;20478;-62
2021/08/10 02:39:47;;;;;;;16.70;15.00;;;;;;;23.10;66.67;99835.88;5014059;28;20460;-62
2021/08/10 02:42:15;;;;;;;21.38;16.55;;;;;;;23.14;66.28;99841.75;5014038;28;20029;-61
2021/08/10 02:44:42;;;;;;;18.50;15.70;;;;;;;23.12;66.79;99843.84;5013950;28;20042;-60
2021/08/10 02:47:08;;;;;;;19.63;15.55;;;;;;;23.13;66.70;99840.06;5013560;28;20109;-62
2021/08/10 02:49:33;;;;;;;18.67;16.13;;;;;;;23.16;66.75;99845.16;5011732;28;20436;-61
2021/08/10 02:51:59;;;;;;;23.40;16.90;;;;;;;23.17;66.71;99844.91;5014077;28;20037;-61
2021/08/10 02:54:25;;;;;;;21.48;16.35;;;;;;;23.19;66.69;99851.00;5013764;28;20029;-61
2021/08/10 02:57:14;;;;;;;19.08;16.85;;;;;;;23.32;66.46;99855.69;5028761;28;20049;-62
2021/08/10 03:00:11;;;;;;;23.63;17.25;;;;;;;23.37;66.06;99852.34;5013344;28;20037;-62
2021/08/10 03:02:59;;;;;;;24.23;17.42;;;;;;;23.45;65.91;99851.31;5012891;28;20207;-61
2021/08/10 03:05:28;;;;;;;21.40;17.25;;;;;;;23.35;65.54;99852.53;5013062;28;20026;-62
2021/08/10 03:08:00;;;;;;;22.35;16.98;;;;;;;23.44;65.54;99846.91;5021812;28;20029;-62
2021/08/10 03:10:30;;;;;;;21.20;16.90;;;;;;;23.44;65.87;99847.72;5032944;28;20038;-61
2021/08/10 03:12:59;;;;;;;25.13;17.08;;;;;;;23.51;65.20;99848.59;5033330;28;20025;-62
2021/08/10 03:15:27;;;;;;;19.35;16.88;;;;;;;23.57;64.87;99844.16;5033720;28;20139;-62
2021/08/10 03:17:58;;;;;;;21.42;16.85;;;;;;;23.66;64.87;99842.06;5032919;28;20042;-62
2021/08/10 03:20:24;;;;;;;19.95;15.85;;;;;;;23.69;64.62;99836.19;5032527;28;20067;-62
2021/08/10 03:22:52;;;;;;;21.20;16.60;;;;;;;23.77;63.99;99840.59;5033216;28;20108;-63
2021/08/10 03:25:19;;;;;;;21.15;16.98;;;;;;;23.88;64.13;99841.88;5032885;28;20359;-61
2021/08/10 03:27:49;;;;;;;27.23;16.73;;;;;;;23.96;63.44;99846.28;5033021;28;20131;-61
2021/08/10 03:30:16;;;;;;;21.73;16.88;;;;;;;23.97;63.38;99840.56;5033071;28;20045;-62
2021/08/10 03:32:44;;;;;;;20.23;16.45;;;;;;;23.93;63.37;99823.78;5032202;28;20045;-63
2021/08/10 03:35:09;;;;;;;20.92;16.67;;;;;;;24.12;63.06;99845.03;5033015;28;20041;-61
2021/08/10 03:37:35;;;;;;;21.23;15.75;;;;;;;24.24;62.65;99848.81;5032264;28;20033;-64
2021/08/10 03:40:03;;;;;;;22.90;16.38;;;;;;;24.37;62.33;99848.75;5032566;28;20034;-62
2021/08/10 03:42:29;;;;;;;21.75;16.02;;;;;;;24.48;61.78;99843.69;5032567;28;20033;-62
2021/08/10 03:44:56;;;;;;;21.73;16.40;;;;;;;24.49;61.67;99820.75;5032231;28;20033;-62
2021/08/10 03:47:22;;;;;;;18.65;15.63;;;;;;;24.73;60.53;99834.75;5032220;28;20389;-62
2021/08/10 03:49:51;;;;;;;20.25;16.88;;;;;;;25.08;60.01;99840.72;5032706;28;20176;-63
2021/08/10 03:52:16;;;;;;;23.30;16.77;;;;;;;25.77;57.57;99823.59;5032325;28;20036;-62
2021/08/10 03:54:43;;;;;;;22.75;16.45;;;;;;;26.69;54.79;99836.81;5032288;28;20029;-61
2021/08/10 03:57:19;;;;;;;23.08;15.95;;;;;;;27.78;52.55;99822.13;5032353;28;20688;-62
2021/08/10 03:59:49;;;;;;;21.52;16.10;;;;;;;28.63;49.46;99830.09;5032350;28;20068;-63
2021/08/10 04:02:15;;;;;;;20.42;15.63;;;;;;;29.49;47.15;99827.59;5032628;28;20040;-63
2021/08/10 04:04:45;;;;;;;21.90;15.82;;;;;;;30.25;45.08;99819.94;5032219;28;20036;-62
2021/08/10 04:07:11;;;;;;;19.02;15.05;;;;;;;30.87;43.44;99823.50;5028821;28;20393;-61
2021/08/10 04:09:38;;;;;;;23.73;16.42;;;;;;;31.43;41.89;99820.47;5011829;28;20034;-62
2021/08/10 04:12:08;;;;;;;21.70;14.85;;;;;;;32.11;40.91;99816.31;5012499;28;20030;-61
2021/08/10 04:14:35;;;;;;;20.00;15.55;;;;;;;32.74;38.94;99831.31;5011145;28;20026;-60
2021/08/10 04:17:06;;;;;;;23.77;15.13;;;;;;;33.43;38.58;99837.59;5011673;28;20386;-60
2021/08/10 04:19:34;;;;;;;27.23;14.50;;;;;;;33.91;36.89;99826.19;5012158;28;20489;-61
2021/08/10 04:22:00;;;;;;;15.75;14.13;;;;;;;34.20;35.57;99794.22;5012054;28;20119;-61
2021/08/10 04:24:26;;;;;;;16.88;15.02;;;;;;;34.71;34.74;99815.41;5011511;28;20077;-60
2021/08/10 04:26:51;;;;;;;21.02;14.52;;;;;;;35.18;33.73;99823.50;5011667;28;20026;-62
2021/08/10 04:29:17;;;;;;;19.15;14.13;;;;;;;35.35;33.31;99809.19;5012178;28;20620;-61
2021/08/10 04:31:43;;;;;;;20.20;15.60;;;;;;;35.66;32.74;99819.25;5011950;28;20179;-62
2021/08/10 04:34:08;;;;;;;16.55;14.75;;;;;;;35.96;32.14;99825.66;5011640;28;20038;-62
2021/08/10 04:36:34;;;;;;;21.55;14.48;;;;;;;36.26;31.87;99815.31;5011659;28;20034;-63
2021/08/10 04:39:00;;;;;;;20.25;15.23;;;;;;;36.49;31.05;99820.06;5012104;28;20037;-63
2021/08/10 04:41:26;;;;;;;21.33;14.15;;;;;;;36.70;30.83;99794.72;5011876;28;20034;-62
2021/08/10 04:43:52;;;;;;;18.77;14.02;;;;;;;37.29;29.31;99816.72;5011313;28;20036;-62
2021/08/10 04:46:19;;;;;;;20.70;14.93;;;;;;;37.75;28.59;99805.94;5012029;28;20038;-62
2021/08/10 04:48:45;;;;;;;21.63;14.48;;;;;;;38.28;28.06;99812.22;5012017;28;20030;-63
2021/08/10 04:51:10;;;;;;;19.40;14.73;;;;;;;38.63;26.78;99809.84;5011674;28;20032;-62
2021/08/10 04:53:36;;;;;;;20.92;13.88;;;;;;;39.13;26.49;99808.16;5011539;28;20394;-62
2021/08/10 04:56:01;;;;;;;20.27;14.40;;;;;;;39.38;25.46;99798.31;5011205;28;20030;-69
2021/08/10 04:58:27;;;;;;;20.48;13.95;;;;;;;39.64;25.56;99799.66;5010432;28;20129;-61
2021/08/10 05:00:52;;;;;;;17.70;13.38;;;;;;;40.03;24.86;99800.84;5012137;28;20107;-62
2021/08/10 05:03:18;;;;;;;16.52;13.48;;;;;;;40.69;24.11;99794.44;5011945;28;20037;-63
2021/08/10 05:05:43;;;;;;;20.88;13.07;;;;;;;40.89;23.25;99793.00;5010828;28;20117;-62
2021/08/10 05:08:09;;;;;;;17.63;13.38;;;;;;;40.59;23.73;99789.97;5022612;28;20042;-61
2021/08/10 05:10:34;;;;;;;21.15;13.30;;;;;;;40.65;23.63;99787.03;5030722;28;20487;-62
2021/08/10 05:13:00;;;;;;;22.52;13.45;;;;;;;41.32;22.87;99790.50;5030691;28;20026;-63
2021/08/10 05:15:25;;;;;;;19.08;13.18;;;;;;;42.30;21.01;99789.88;5030799;28;20035;-62
2021/08/10 05:17:51;;;;;;;17.58;12.20;;;;;;;42.71;21.05;99784.69;5030864;28;20453;-61
2021/08/10 05:20:16;;;;;;;17.42;12.15;;;;;;;41.59;21.75;99782.88;5031125;28;20098;-61
2021/08/10 05:22:42;;;;;;;18.90;12.93;;;;;;;40.13;23.68;99772.53;5030596;28;20037;-63
2021/08/10 05:25:08;;;;;;;17.13;13.00;;;;;;;38.62;25.83;99774.63;5030255;28;20725;-62
2021/08/10 05:27:34;;;;;;;20.30;13.23;;;;;;;37.37;28.23;99795.69;5030642;28;20030;-62
2021/08/10 05:29:59;;;;;;;17.23;13.60;;;;;;;36.43;29.23;99779.44;5030556;28;20054;-63
2021/08/10 05:32:25;;;;;;;16.73;12.30;;;;;;;36.20;29.76;99776.38;5029054;28;20044;-62
2021/08/10 05:34:50;;;;;;;18.67;12.32;;;;;;;36.64;29.47;99781.94;5030381;28;20038;-64
2021/08/10 05:37:16;;;;;;;21.80;12.65;;;;;;;36.67;29.06;99777.75;5030758;28;20037;-62
2021/08/10 05:39:41;;;;;;;20.55;12.23;;;;;;;36.33;29.28;99773.97;5030716;28;20083;-62
2021/08/10 05:42:07;;;;;;;18.27;12.98;;;;;;;35.76;29.57;99769.03;5030525;28;20045;-61
2021/08/10 05:44:32;;;;;;;19.25;12.75;;;;;;;35.20;30.88;99776.72;5030794;28;20530;-62
2021/08/10 05:46:58;;;;;;;17.45;12.60;;;;;;;35.00;30.87;99773.00;5030359;28;20461;-63
2021/08/10 05:49:23;;;;;;;17.83;12.77;;;;;;;35.05;31.17;99742.38;5030504;28;20033;-63
2021/08/10 05:51:49;;;;;;;16.98;12.15;;;;;;;35.29;30.92;99763.88;5030434;28;20060;-63
2021/08/10 05:54:15;;;;;;;13.40;11.65;;;;;;;34.99;31.70;99751.00;5029671;28;20033;-61
2021/08/10 05:56:40;;;;;;;16.85;12.55;;;;;;;34.88;31.78;99755.81;5029818;28;20052;-63
2021/08/10 05:59:07;;;;;;;21.00;12.18;;;;;;;34.73;32.28;99763.16;5030670;28;20466;-63
2021/08/10 06:01:37;;;;;;;18.42;12.48;;;;;;;34.66;31.85;99770.13;5029787;28;20437;-64
2021/08/10 06:04:05;;;;;;;17.85;12.27;;;;;;;34.36;31.86;99769.97;5029898;28;20362;-63
2021/08/10 06:06:31;;;;;;;18.38;12.70;;;;;;;34.27;32.45;99768.91;5030709;28;20040;-61
2021/08/10 06:08:57;;;;;;;16.42;12.05;;;;;;;34.38;31.92;99764.97;5011597;28;20153;-61
2021/08/10 06:11:22;;;;;;;18.08;11.45;;;;;;;34.63;31.49;99768.75;5010588;28;20034;-62
2021/08/10 06:13:48;;;;;;;17.02;11.52;;;;;;;34.78;31.52;99768.66;5010841;28;20069;-61
2021/08/10 06:16:13;;;;;;;17.13;11.32;;;;;;;34.71;31.25;99773.69;5011054;28;20500;-61
2021/08/10 06:18:39;;;;;;;15.68;11.60;;;;;;;34.43;32.59;99773.25;5009943;28;20065;-61
2021/08/10 06:21:04;;;;;;;17.80;12.52;;;;;;;35.14;30.52;99766.78;5010193;28;20149;-60
2021/08/10 06:23:29;;;;;;;19.50;11.55;;;;;;;38.01;26.87;99767.19;5010280;28;20107;-61
2021/08/10 06:25:55;;;;;;;18.17;11.52;;;;;;;41.02;22.32;99763.13;5010226;28;20487;-61
2021/08/10 06:28:20;;;;;;;18.83;11.80;;;;;;;43.13;19.87;99766.94;5010288;28;20366;-62
2021/08/10 06:30:46;;;;;;;17.23;10.43;;;;;;;44.95;17.63;99753.97;5010709;28;20112;-60
2021/08/10 06:33:11;;;;;;;11.77;10.50;;;;;;;45.33;17.15;99765.09;5010635;28;20120;-60
2021/08/10 06:35:37;;;;;;;17.70;11.07;;;;;;;44.78;17.49;99763.56;5010766;28;20053;-61
2021/08/10 06:38:02;;;;;;;18.95;11.23;;;;;;;45.29;16.76;99765.81;5012962;28;20434;-62
2021/08/10 06:40:28;;;;;;;14.65;11.27;;;;;;;44.24;17.50;99764.69;5028686;28;20045;-61
2021/08/10 06:42:53;;;;;;;16.50;11.18;;;;;;;42.37;19.20;99749.94;5013901;28;20034;-61
2021/08/10 06:45:19;;;;;;;15.65;10.85;;;;;;;40.58;21.63;99760.25;5013976;28;20450;-63
2021/08/10 06:47:47;;;;;;;12.63;10.45;;;;;;;38.83;24.26;99760.16;5017517;28;20351;-62
2021/08/10 06:50:14;;;;;;;14.38;11.13;;;;;;;37.64;25.08;99777.34;5025135;28;20037;-62
2021/08/10 06:52:40;;;;;;;16.48;10.82;;;;;;;36.53;26.64;99777.66;5033562;28;20117;-62
2021/08/10 06:55:06;;;;;;;17.00;10.93;;;;;;;35.78;28.00;99780.72;5014750;28;20121;-61
2021/08/10 06:57:31;;;;;;;19.10;12.05;;;;;;;35.17;29.55;99757.84;5012946;28;20029;-61
2021/08/10 06:59:57;;;;;;;17.63;11.05;;;;;;;34.83;29.76;99778.09;5027348;28;20032;-61
2021/08/10 07:02:22;;;;;;;15.57;10.85;;;;;;;34.62;30.37;99773.50;5033576;28;20034;-60
2021/08/10 07:04:48;;;;;;;16.52;12.05;;;;;;;34.53;30.74;99757.69;5033993;28;20060;-60
2021/08/10 07:07:13;;;;;;;17.70;11.45;;;;;;;34.61;31.66;99769.06;5032989;28;20152;-60
2021/08/10 07:09:39;;;;;;;16.25;10.75;;;;;;;34.49;30.88;99749.94;5032924;28;20029;-63
2021/08/10 07:12:04;;;;;;;14.35;10.95;;;;;;;34.25;31.03;99746.94;5032780;28;20037;-61
2021/08/10 07:14:30;;;;;;;19.73;11.30;;;;;;;34.38;31.40;99762.19;5033163;28;20470;-60
2021/08/10 07:16:55;;;;;;;18.77;12.25;;;;;;;34.36;32.00;99758.84;5032783;28;20108;-61
2021/08/10 07:19:21;;;;;;;18.35;12.48;;;;;;;34.38;31.84;99750.25;5032849;28;20068;-61
2021/08/10 07:21:47;;;;;;;22.83;13.38;;;;;;;34.42;31.79;99735.47;5033415;28;20038;-60
2021/08/10 07:24:12;;;;;;;21.00;14.00;;;;;;;34.93;31.17;99762.16;5032982;28;20033;-59
2021/08/10 07:26:37;;;;;;;19.35;12.73;;;;;;;36.42;28.62;99744.34;5032881;28;20071;-60
2021/08/10 07:29:03;;;;;;;15.93;12.85;;;;;;;38.79;25.38;99756.31;5032667;28;20107;-60
2021/08/10 07:31:29;;;;;;;22.30;12.02;;;;;;;40.15;23.73;99755.34;5033340;28;20443;-60
2021/08/10 07:33:54;;;;;;;20.65;12.73;;;;;;;40.67;22.72;99754.66;5033115;28;20584;-59
2021/08/10 07:36:20;;;;;;;22.65;13.88;;;;;;;41.02;22.27;99757.50;5033027;28;20112;-60
2021/08/10 07:38:46;;;;;;;16.73;12.52;;;;;;;40.11;23.06;99755.19;5033333;28;20026;-60
2021/08/10 07:41:12;;;;;;;20.23;13.20;;;;;;;39.30;24.28;99763.47;5032668;28;20033;-60
2021/08/10 07:43:37;;;;;;;19.88;12.30;;;;;;;38.56;25.53;99745.09;5032780;28;20044;-60
2021/08/10 07:46:03;;;;;;;12.85;11.45;;;;;;;38.77;24.83;99743.47;5033101;28;20025;-59
2021/08/10 07:48:30;;;;;;;14.13;11.93;;;;;;;41.28;20.86;99737.00;5032454;28;20037;-60
2021/08/10 07:50:55;;;;;;;13.05;10.98;;;;;;;44.57;17.28;99741.13;5032899;28;20030;-60
2021/08/10 07:53:21;;;;;;;19.88;10.68;;;;;;;46.67;14.75;99742.94;5032979;28;20052;-60
2021/08/10 07:55:48;;;;;;;16.73;10.57;;;;;;;47.91;13.63;99754.59;5030815;28;20539;-61
2021/08/10 07:58:13;;;;;;;15.90;9.95;;;;;;;47.85;12.88;99749.25;5030397;28;20026;-62
2021/08/10 08:00:39;;;;;;;16.63;10.18;;;;;;;47.63;13.19;99742.38;5030606;28;20144;-60
2021/08/10 08:03:04;;;;;;;12.40;9.32;;;;;;;47.71;13.46;99746.16;5030712;28;20039;-59
2021/08/10 08:05:31;;;;;;;10.98;9.73;;;;;;;48.02;13.45;99749.91;5028953;28;20032;-61
2021/08/10 08:07:57;;;;;;;14.32;9.75;;;;;;;47.47;13.19;99739.66;5030362;28;20026;-60
2021/08/10 08:10:22;;;;;;;12.52;8.88;;;;;;;47.45;14.29;99727.88;5032634;28;20029;-60
2021/08/10 08:12:48;;;;;;;14.70;10.85;;;;;;;47.25;13.64;99727.09;5032952;28;20044;-61
2021/08/10 08:15:13;;;;;;;13.95;9.63;;;;;;;45.84;14.98;99728.50;5032362;28;20397;-60
2021/08/10 08:17:39;;;;;;;15.10;9.65;;;;;;;44.96;16.19;99716.09;5032048;28;20069;-61
2021/08/10 08:20:05;;;;;;;16.35;10.07;;;;;;;43.83;17.48;99728.72;5032580;28;20033;-60
2021/08/10 08:22:30;;;;;;;13.50;10.32;;;;;;;42.58;18.79;99712.59;5032518;28;20087;-60
2021/08/10 08:24:56;;;;;;;12.73;9.85;;;;;;;41.39;20.12;99702.94;5032160;28;20029;-61
2021/08/10 08:27:21;;;;;;;16.98;11.13;;;;;;;40.27;21.12;99705.13;5032391;28;20026;-60
2021/08/10 08:29:47;;;;;;;13.27;9.90;;;;;;;38.70;22.74;99714.28;5032341;28;20053;-60
2021/08/10 08:32:12;;;;;;;14.10;11.40;;;;;;;37.46;25.11;99698.09;5032190;28;20037;-61
2021/08/10 08:34:38;;;;;;;14.90;11.02;;;;;;;36.82;25.86;99715.31;5031958;28;20503;-60
2021/08/10 08:37:04;;;;;;;19.65;10.18;;;;;;;36.37;26.33;99724.88;5031947;28;20037;-61
2021/08/10 08:39:30;;;;;;;12.68;10.68;;;;;;;36.14;27.69;99707.88;5030842;28;20453;-61
2021/08/10 08:41:59;;;;;;;11.73;9.10;;;;;;;36.11;25.63;99710.47;5031807;28;20029;-60
2021/08/10 08:44:25;;;;;;;11.25;8.27;;;;;;;36.00;26.33;99704.16;5032191;28;20422;-60
2021/08/10 08:46:53;;;;;;;14.95;8.10;;;;;;;36.17;25.17;99707.31;5031847;28;20061;-61
2021/08/10 08:49:23;;;;;;;14.80;9.13;;;;;;;36.20;25.01;99715.06;5032405;28;20430;-61
2021/08/10 08:51:49;;;;;;;10.93;8.45;;;;;;;35.94;25.45;99703.38;5031810;28;20040;-61
2021/08/10 08:54:15;;;;;;;10.18;8.20;;;;;;;35.69;25.83;99713.69;5031718;28;20025;-61
2021/08/10 08:56:41;;;;;;;13.30;7.68;;;;;;;35.45;25.55;99705.25;5031784;28;20066;-61
2021/08/10 08:59:07;;;;;;;12.63;8.15;;;;;;;35.35;25.49;99707.03;5031429;28;20029;-60
2021/08/10 09:01:37;;;;;;;15.02;8.80;;;;;;;35.35;26.01;99718.16;5031201;28;20086;-60
2021/08/10 09:04:07;;;;;;;15.48;8.52;;;;;;;35.08;26.19;99706.75;5030957;28;20115;-61
2021/08/10 09:06:32;;;;;;;12.27;7.82;;;;;;;34.85;26.63;99707.19;5031236;28;20482;-60
2021/08/10 09:09:18;;;;;;;20.45;8.50;;;;;;;34.95;26.69;99714.59;5031781;28;20041;-60
2021/08/10 09:11:51;;;;;;;12.13;7.43;;;;;;;35.02;27.29;99715.13;5031107;28;20108;-61
2021/08/10 09:14:17;;;;;;;16.88;8.50;;;;;;;35.01;26.78;99710.69;5031490;28;20060;-60
2021/08/10 09:17:11;;;;;;;12.27;7.70;;;;;;;35.30;26.39;99714.59;5031246;28;20458;-60
2021/08/10 09:19:42;;;;;;;10.15;8.02;;;;;;;35.00;26.57;99711.81;5031086;28;20045;-61
2021/08/10 09:22:37;;;;;;;12.63;7.70;;;;;;;35.07;26.19;99705.91;5030896;28;20048;-61
2021/08/10 09:25:06;;;;;;;9.63;7.50;;;;;;;34.99;26.93;99704.56;5025857;28;20128;-60
2021/08/10 09:27:40;;;;;;;12.70;8.18;;;;;;;34.86;26.92;99702.44;5031258;28;20029;-60
2021/08/10 09:30:25;;;;;;;12.90;8.20;;;;;;;34.61;27.10;99696.78;5030944;28;20053;-62
2021/08/10 09:33:00;;;;;;;10.90;7.97;;;;;;;34.63;27.31;99699.25;5030777;28;20440;-60
2021/08/10 09:35:36;;;;;;;11.13;7.78;;;;;;;34.67;27.18;99696.72;5026001;28;20098;-61
2021/08/10 09:38:04;;;;;;;11.88;8.38;;;;;;;34.47;27.60;99696.53;5030843;28;20385;-60
2021/08/10 09:40:35;;;;;;;12.40;8.48;;;;;;;34.40;27.68;99701.56;5030938;28;20065;-60
2021/08/10 09:43:21;;;;;;;10.63;7.70;;;;;;;34.56;27.26;99709.88;5031071;28;20021;-61
2021/08/10 09:45:48;;;;;;;14.77;7.95;;;;;;;34.29;27.01;99720.25;5029157;28;20044;-60
2021/08/10 09:48:17;;;;;;;13.63;8.52;;;;;;;34.25;27.39;99715.56;5031077;28;20453;-65
2021/08/10 09:50:43;;;;;;;16.70;8.52;;;;;;;34.18;28.21;99711.13;5020585;28;20032;-63
2021/08/10 09:53:20;;;;;;;14.77;8.93;;;;;;;34.13;27.89;99704.78;5028895;28;20147;-68
2021/08/10 09:55:57;;;;;;;17.45;9.00;;;;;;;33.78;28.44;99707.38;5030471;28;20033;-65
2021/08/10 09:58:23;;;;;;;13.55;8.75;;;;;;;33.16;30.15;99699.97;5031006;28;20040;-60
2021/08/10 10:00:50;;;;;;;10.88;8.93;;;;;;;33.04;30.58;99694.72;5030796;28;20181;-60
2021/08/10 10:03:20;;;;;;;16.80;8.93;;;;;;;33.25;30.29;99704.94;5030581;28;20378;-63
2021/08/10 10:05:46;;;;;;;19.52;9.13;;;;;;;33.02;31.01;99702.44;5029738;28;20381;-62
2021/08/10 10:08:16;;;;;;;15.23;8.75;;;;;;;33.07;30.95;99701.63;5031082;28;20033;-69
2021/08/10 10:10:43;;;;;;;14.23;8.15;;;;;;;33.20;30.57;99711.31;5030424;28;20034;-60
2021/08/10 10:13:11;;;;;;;16.25;9.80;;;;;;;33.25;30.21;99710.50;5034095;28;20116;-60
2021/08/10 10:15:38;;;;;;;19.88;9.93;;;;;;;33.31;30.24;99703.81;5034422;28;20079;-68
2021/08/10 10:18:05;;;;;;;15.95;9.35;;;;;;;33.19;30.81;99706.88;5033363;28;20465;-61
2021/08/10 10:20:32;;;;;;;14.75;9.90;;;;;;;32.97;31.47;99705.22;5034589;28;20041;-61
2021/08/10 10:22:58;;;;;;;14.02;9.93;;;;;;;32.94;31.05;99719.63;5034824;28;20478;-63
2021/08/10 10:25:25;;;;;;;14.40;10.80;;;;;;;33.04;30.87;99703.03;5033931;28;20119;-60
2021/08/10 10:27:52;;;;;;;20.92;11.05;;;;;;;33.39;31.26;99707.97;5033991;28;20041;-61
2021/08/10 10:30:17;;;;;;;15.45;10.45;;;;;;;33.67;30.28;99714.91;5033207;28;20052;-61
2021/08/10 10:32:43;;;;;;;13.63;10.13;;;;;;;33.79;30.04;99709.06;5033309;28;20037;-60
2021/08/10 10:35:10;;;;;;;22.27;11.02;;;;;;;33.53;30.08;99711.88;5034368;28;20120;-61
2021/08/10 10:37:36;;;;;;;18.05;9.45;;;;;;;33.34;30.82;99717.97;5033974;28;20112;-60
2021/08/10 10:40:07;;;;;;;16.33;9.50;;;;;;;33.30;30.98;99739.06;5033460;28;20109;-61
2021/08/10 10:42:33;;;;;;;18.10;9.77;;;;;;;33.11;30.86;99732.41;5034133;28;20073;-61
2021/08/10 10:44:58;;;;;;;18.38;8.73;;;;;;;33.01;30.45;99727.69;5034273;28;20052;-56
2021/08/10 10:47:24;;;;;;;14.43;8.30;;;;;;;32.93;30.23;99731.84;5033440;28;20030;-57
2021/08/10 10:49:56;;;;;;;17.67;8.57;;;;;;;33.14;29.92;99738.22;5033680;28;20041;-56
2021/08/10 10:52:22;;;;;;;11.27;8.00;;;;;;;33.05;30.83;99734.34;5033910;28;20320;-54
2021/08/10 10:54:47;;;;;;;11.57;8.43;;;;;;;33.03;30.97;99740.16;5033680;28;20033;-57
2021/08/10 10:57:31;;;;;;;13.65;8.07;;;;;;;33.30;30.65;99744.63;5033611;28;20080;-57
2021/08/10 11:00:03;;;;;;;14.07;7.78;;;;;;;33.12;30.59;99732.13;5032685;28;20049;-57
2021/08/10 11:02:31;;;;;;;15.43;8.27;;;;;;;33.04;30.57;99752.94;5033737;28;20394;-57
2021/08/10 11:05:05;;;;;;;15.98;7.47;;;;;;;33.11;30.19;99752.66;5033995;28;20030;-57
2021/08/10 11:07:36;;;;;;;15.70;7.23;;;;;;;32.90;30.50;99757.34;5033837;28;20041;-59
2021/08/10 11:10:03;;;;;;;14.23;7.57;;;;;;;32.61;31.12;99758.63;5033369;28;20067;-59
2021/08/10 11:12:47;;;;;;;12.25;7.53;;;;;;;32.57;31.21;99760.28;5033593;28;20037;-56
2021/08/10 11:15:22;;;;;;;15.82;7.80;;;;;;;32.32;32.03;99749.94;5033259;28;20141;-59
2021/08/10 11:18:06;;;;;;;16.05;8.23;;;;;;;32.26;32.09;99749.06;5033381;28;20033;-60
2021/08/10 11:20:32;;;;;;;12.65;8.23;;;;;;;31.82;32.71;99753.00;5052050;28;20473;-58
2021/08/10 11:23:16;;;;;;;16.27;7.70;;;;;;;31.77;32.70;99752.97;5053042;28;20033;-57
2021/08/10 11:25:42;;;;;;;16.15;8.10;;;;;;;31.21;34.37;99743.13;5052972;28;20414;-60